createdAt,value
2022-09-25T00:00:01.365Z,10.11
2022-09-25T00:01:01.410Z,10.39
2022-09-25T00:02:01.465Z,10.11
2022-09-25T00:03:01.412Z,10.11
2022-09-25T00:04:01.359Z,10.11
2022-09-25T00:05:01.365Z,9.94
2022-09-25T00:06:01.390Z,10.11
2022-09-25T00:07:01.362Z,10.22
2022-09-25T00:08:01.369Z,9.78
2022-09-25T00:09:01.369Z,10.11
2022-09-25T00:10:01.365Z,10.22
2022-09-25T00:11:01.360Z,9.78
2022-09-25T00:12:01.377Z,10.11
2022-09-25T00:13:01.364Z,10.22
2022-09-25T00:14:01.371Z,10.11
2022-09-25T00:15:01.368Z,10.11
2022-09-25T00:16:01.367Z,10.11
2022-09-25T00:17:01.380Z,10.11
2022-09-25T00:18:01.364Z,10.11
2022-09-25T00:19:01.367Z,10.11
2022-09-25T00:20:01.374Z,10.11
2022-09-25T00:21:01.367Z,9.94
2022-09-25T00:22:01.396Z,9.94
2022-09-25T00:23:01.370Z,10.11
2022-09-25T00:24:01.361Z,10.11
2022-09-25T00:25:01.373Z,10.22
2022-09-25T00:26:01.370Z,9.94
2022-09-25T00:27:01.358Z,10.11
2022-09-25T00:28:01.368Z,10.11
2022-09-25T00:29:01.439Z,10.11
2022-09-25T00:30:01.374Z,10.11
2022-09-25T00:31:01.381Z,10.22
2022-09-25T00:32:01.371Z,10.11
2022-09-25T00:33:01.367Z,10.11
2022-09-25T00:34:01.370Z,10.11
2022-09-25T00:35:01.367Z,10.39
2022-09-25T00:36:01.368Z,9.78
2022-09-25T00:37:01.365Z,10.11
2022-09-25T00:38:01.402Z,10.39
2022-09-25T00:39:01.370Z,10.22
2022-09-25T00:40:01.384Z,10.39
2022-09-25T00:41:01.370Z,10.39
2022-09-25T00:42:01.374Z,10.39
2022-09-25T00:43:01.373Z,10.39
2022-09-25T00:44:01.388Z,10.56
2022-09-25T00:45:01.426Z,10.22
2022-09-25T00:46:01.430Z,10.11
2022-09-25T00:47:01.369Z,10.22
2022-09-25T00:48:01.379Z,10.22
2022-09-25T00:49:01.383Z,10.11
2022-09-25T00:50:01.377Z,9.94
2022-09-25T00:51:01.389Z,10.11
2022-09-25T00:52:01.382Z,10.22
2022-09-25T00:53:01.383Z,10.11
2022-09-25T00:54:01.437Z,10.11
2022-09-25T00:55:01.378Z,10.22
2022-09-25T00:56:01.391Z,10.11
2022-09-25T00:57:01.381Z,9.78
2022-09-25T00:58:01.390Z,10.11
2022-09-25T00:59:01.381Z,10.11
2022-09-25T01:00:01.382Z,9.94
2022-09-25T01:01:01.547Z,10.11
2022-09-25T01:02:01.478Z,10.11
2022-09-25T01:03:01.382Z,10.11
2022-09-25T01:04:01.387Z,9.94
2022-09-25T01:05:01.387Z,10.11
2022-09-25T01:06:01.386Z,9.94
2022-09-25T01:07:01.385Z,10.11
2022-09-25T01:08:01.386Z,9.94
2022-09-25T01:09:01.393Z,10.11
2022-09-25T01:10:01.401Z,9.78
2022-09-25T01:11:01.378Z,10.11
2022-09-25T01:12:01.388Z,10.11
2022-09-25T01:13:01.385Z,10.11
2022-09-25T01:14:01.378Z,9.78
2022-09-25T01:15:01.390Z,10.11
2022-09-25T01:16:01.384Z,9.94
2022-09-25T01:17:01.461Z,9.78
2022-09-25T01:18:01.382Z,9.94
2022-09-25T01:19:01.391Z,9.5
2022-09-25T01:20:01.380Z,9.67
2022-09-25T01:21:01.398Z,9.67
2022-09-25T01:22:01.391Z,9.78
2022-09-25T01:23:01.392Z,9.67
2022-09-25T01:24:01.387Z,9.78
2022-09-25T01:25:01.394Z,9.78
2022-09-25T01:26:01.417Z,9.94
2022-09-25T01:27:01.392Z,9.67
2022-09-25T01:28:01.392Z,9.67
2022-09-25T01:29:01.391Z,9.67
2022-09-25T01:30:01.386Z,9.78
2022-09-25T01:31:01.463Z,9.67
2022-09-25T01:32:01.393Z,9.78
2022-09-25T01:33:01.394Z,9.67
2022-09-25T01:34:01.389Z,9.94
2022-09-25T01:35:01.394Z,9.78
2022-09-25T01:36:01.397Z,9.94
2022-09-25T01:37:01.391Z,9.67
2022-09-25T01:38:01.397Z,9.94
2022-09-25T01:39:01.394Z,9.94
2022-09-25T01:40:01.399Z,9.78
2022-09-25T01:41:01.418Z,9.78
2022-09-25T01:42:01.414Z,9.94
2022-09-25T01:43:01.395Z,9.78
2022-09-25T01:44:01.401Z,9.67
2022-09-25T01:45:01.395Z,9.67
2022-09-25T01:46:01.493Z,9.67
2022-09-25T01:47:01.389Z,9.78
2022-09-25T01:48:01.393Z,9.78
2022-09-25T01:49:01.394Z,9.78
2022-09-25T01:50:01.391Z,9.67
2022-09-25T01:51:01.410Z,9.67
2022-09-25T01:52:01.392Z,9.94
2022-09-25T01:53:01.408Z,9.67
2022-09-25T01:54:01.397Z,9.78
2022-09-25T01:55:01.398Z,9.67
2022-09-25T01:56:01.393Z,9.67
2022-09-25T01:57:01.402Z,9.39
2022-09-25T01:58:01.499Z,9.5
2022-09-25T01:59:01.414Z,9.5
2022-09-25T02:00:01.401Z,9.67
2022-09-25T02:01:01.424Z,9.67
2022-09-25T02:02:01.447Z,9.67
2022-09-25T02:03:01.472Z,9.94
2022-09-25T02:04:01.401Z,9.67
2022-09-25T02:05:01.402Z,9.67
2022-09-25T02:06:01.427Z,9.67
2022-09-25T02:07:01.410Z,9.78
2022-09-25T02:08:01.407Z,9.67
2022-09-25T02:09:01.414Z,9.5
2022-09-25T02:10:01.424Z,9.78
2022-09-25T02:11:01.409Z,9.67
2022-09-25T02:12:01.411Z,9.67
2022-09-25T02:13:01.414Z,9.78
2022-09-25T02:14:01.435Z,9.67
2022-09-25T02:15:01.432Z,9.78
2022-09-25T02:16:01.418Z,9.67
2022-09-25T02:17:01.493Z,9.94
2022-09-25T02:18:01.428Z,9.5
2022-09-25T02:19:01.415Z,9.78
2022-09-25T02:20:01.421Z,9.67
2022-09-25T02:21:01.424Z,9.78
2022-09-25T02:22:01.426Z,9.94
2022-09-25T02:23:01.422Z,9.94
2022-09-25T02:24:01.422Z,9.94
2022-09-25T02:25:01.418Z,9.78
2022-09-25T02:26:01.422Z,9.78
2022-09-25T02:27:01.426Z,10.11
2022-09-25T02:28:01.421Z,9.78
2022-09-25T02:29:01.445Z,9.78
2022-09-25T02:30:01.552Z,9.94
2022-09-25T02:31:01.501Z,9.67
2022-09-25T02:32:01.425Z,10.11
2022-09-25T02:33:01.432Z,9.94
2022-09-25T02:34:01.421Z,9.94
2022-09-25T02:35:01.438Z,9.94
2022-09-25T02:36:01.433Z,9.94
2022-09-25T02:37:01.446Z,10.11
2022-09-25T02:38:01.434Z,9.94
2022-09-25T02:39:01.437Z,9.94
2022-09-25T02:40:01.428Z,9.78
2022-09-25T02:41:01.445Z,9.94
2022-09-25T02:42:01.439Z,9.67
2022-09-25T02:43:01.442Z,9.94
2022-09-25T02:44:01.429Z,9.67
2022-09-25T02:45:01.444Z,9.94
2022-09-25T02:46:01.537Z,9.78
2022-09-25T02:47:01.442Z,9.67
2022-09-25T02:48:01.443Z,9.78
2022-09-25T02:49:01.436Z,9.5
2022-09-25T02:50:01.431Z,9.5
2022-09-25T02:51:01.438Z,9.5
2022-09-25T02:52:01.445Z,9.67
2022-09-25T02:53:01.448Z,9.39
2022-09-25T02:54:01.452Z,9.22
2022-09-25T02:55:01.443Z,9.39
2022-09-25T02:56:01.443Z,9.5
2022-09-25T02:57:03.870Z,9.5
2022-09-25T02:58:01.444Z,9.5
2022-09-25T02:59:01.443Z,9.39
2022-09-25T03:00:01.457Z,9.22
2022-09-25T03:01:01.514Z,9.22
2022-09-25T03:02:01.526Z,9.39
2022-09-25T03:03:01.495Z,9.22
2022-09-25T03:04:01.446Z,9.39
2022-09-25T03:05:01.452Z,9.5
2022-09-25T03:06:01.451Z,9.06
2022-09-25T03:07:01.446Z,9.22
2022-09-25T03:08:01.451Z,9.67
2022-09-25T03:09:01.444Z,9.67
2022-09-25T03:10:01.454Z,9.94
2022-09-25T03:11:01.449Z,9.5
2022-09-25T03:12:01.448Z,9.67
2022-09-25T03:13:01.450Z,9.67
2022-09-25T03:14:01.446Z,9.5
2022-09-25T03:15:01.448Z,9.5
2022-09-25T03:16:01.489Z,9.22
2022-09-25T03:17:01.454Z,9.5
2022-09-25T03:18:01.552Z,9.22
2022-09-25T03:19:01.451Z,8.94
2022-09-25T03:20:01.465Z,9.22
2022-09-25T03:21:01.456Z,9.22
2022-09-25T03:22:01.453Z,9.22
2022-09-25T03:23:01.460Z,9.06
2022-09-25T03:24:01.464Z,9.22
2022-09-25T03:25:01.455Z,9.22
2022-09-25T03:26:01.461Z,9.22
2022-09-25T03:27:01.458Z,9.22
2022-09-25T03:28:01.452Z,9.39
2022-09-25T03:29:01.463Z,9.22
2022-09-25T03:30:01.466Z,9.22
2022-09-25T03:31:01.573Z,9.22
2022-09-25T03:32:01.463Z,9.22
2022-09-25T03:33:01.462Z,9.06
2022-09-25T03:34:01.480Z,9.22
2022-09-25T03:35:01.466Z,9.22
2022-09-25T03:36:01.463Z,9.22
2022-09-25T03:37:01.463Z,8.78
2022-09-25T03:38:01.469Z,9.22
2022-09-25T03:39:01.465Z,9.06
2022-09-25T03:40:01.470Z,9.22
2022-09-25T03:41:01.579Z,9.22
2022-09-25T03:42:01.469Z,9.22
2022-09-25T03:44:01.475Z,9.22
2022-09-25T03:45:01.461Z,9.22
2022-09-25T03:46:01.541Z,8.94
2022-09-25T03:47:01.474Z,9.39
2022-09-25T03:48:01.479Z,9.22
2022-09-25T03:49:01.466Z,9.22
2022-09-25T03:50:01.492Z,9.06
2022-09-25T03:51:01.465Z,9.06
2022-09-25T03:52:01.472Z,9.22
2022-09-25T03:53:01.467Z,9.06
2022-09-25T03:54:01.472Z,9.06
2022-09-25T03:55:01.464Z,9.06
2022-09-25T03:56:01.471Z,9.22
2022-09-25T03:57:01.477Z,9.22
2022-09-25T03:58:01.471Z,9.39
2022-09-25T03:59:01.471Z,8.94
2022-09-25T04:00:01.475Z,9.39
2022-09-25T04:01:01.497Z,9.22
2022-09-25T04:02:01.507Z,8.94
2022-09-25T04:03:01.470Z,8.94
2022-09-25T04:04:01.475Z,9.06
2022-09-25T04:05:01.466Z,8.94
2022-09-25T04:06:01.505Z,8.94
2022-09-25T04:07:01.483Z,8.94
2022-09-25T04:08:01.477Z,8.94
2022-09-25T04:09:01.485Z,9.06
2022-09-25T04:10:01.479Z,8.5
2022-09-25T04:11:01.478Z,9.06
2022-09-25T04:12:01.479Z,8.94
2022-09-25T04:13:01.474Z,9.06
2022-09-25T04:14:01.476Z,9.22
2022-09-25T04:15:01.475Z,9.22
2022-09-25T04:16:01.652Z,9.22
2022-09-25T04:17:01.478Z,9.06
2022-09-25T04:18:05.885Z,8.78
2022-09-25T04:19:01.478Z,9.22
2022-09-25T04:20:01.479Z,8.94
2022-09-25T04:21:01.474Z,9.5
2022-09-25T04:22:01.501Z,9.39
2022-09-25T04:23:01.475Z,9.22
2022-09-25T04:24:01.483Z,8.94
2022-09-25T04:25:01.479Z,9.39
2022-09-25T04:26:01.474Z,9.5
2022-09-25T04:27:01.490Z,9.5
2022-09-25T04:28:01.481Z,9.39
2022-09-25T04:29:01.656Z,9.39
2022-09-25T04:30:01.481Z,9.39
2022-09-25T04:31:01.544Z,9.22
2022-09-25T04:32:01.522Z,9.5
2022-09-25T04:33:01.482Z,9.5
2022-09-25T04:34:01.480Z,9.39
2022-09-25T04:35:01.498Z,9.67
2022-09-25T04:36:01.482Z,9.5
2022-09-25T04:37:01.485Z,9.22
2022-09-25T04:38:01.510Z,9.5
2022-09-25T04:39:01.487Z,9.5
2022-09-25T04:40:01.493Z,9.5
2022-09-25T04:41:01.498Z,9.5
2022-09-25T04:42:01.487Z,9.5
2022-09-25T04:43:01.495Z,9.67
2022-09-25T04:44:01.499Z,9.5
2022-09-25T04:45:01.497Z,9.67
2022-09-25T04:46:01.586Z,9.5
2022-09-25T04:47:01.486Z,9.5
2022-09-25T04:48:01.512Z,9.5
2022-09-25T04:49:01.498Z,9.5
2022-09-25T04:50:01.497Z,9.5
2022-09-25T04:51:01.484Z,9.67
2022-09-25T04:52:01.492Z,9.67
2022-09-25T04:53:01.494Z,9.67
2022-09-25T04:54:01.513Z,9.39
2022-09-25T04:55:01.498Z,9.5
2022-09-25T04:56:01.495Z,9.67
2022-09-25T04:57:01.503Z,9.67
2022-09-25T04:58:01.500Z,9.67
2022-09-25T04:59:01.485Z,9.67
2022-09-25T05:00:01.494Z,9.5
2022-09-25T05:01:01.551Z,9.5
2022-09-25T05:02:01.648Z,9.67
2022-09-25T05:03:01.575Z,9.22
2022-09-25T05:04:05.020Z,9.67
2022-09-25T05:05:01.503Z,9.67
2022-09-25T05:06:01.503Z,9.67
2022-09-25T05:07:01.504Z,9.5
2022-09-25T05:08:01.505Z,9.39
2022-09-25T05:09:01.503Z,9.5
2022-09-25T05:10:01.533Z,9.67
2022-09-25T05:11:01.506Z,9.67
2022-09-25T05:12:01.509Z,9.39
2022-09-25T05:13:01.527Z,9.5
2022-09-25T05:14:01.510Z,9.67
2022-09-25T05:15:01.530Z,9.67
2022-09-25T05:16:01.564Z,9.5
2022-09-25T05:17:01.518Z,9.5
2022-09-25T05:18:01.509Z,9.67
2022-09-25T05:19:01.506Z,9.67
2022-09-25T05:20:01.510Z,9.22
2022-09-25T05:21:01.514Z,9.67
2022-09-25T05:22:01.506Z,9.67
2022-09-25T05:23:01.509Z,9.5
2022-09-25T05:24:01.515Z,9.67
2022-09-25T05:25:01.524Z,9.5
2022-09-25T05:26:01.543Z,9.5
2022-09-25T05:27:01.510Z,9.5
2022-09-25T05:28:01.511Z,9.67
2022-09-25T05:29:01.513Z,9.67
2022-09-25T05:30:01.518Z,9.67
2022-09-25T05:31:01.559Z,9.67
2022-09-25T05:32:01.506Z,9.67
2022-09-25T05:33:01.528Z,9.5
2022-09-25T05:34:01.516Z,9.67
2022-09-25T05:35:01.519Z,9.67
2022-09-25T05:36:01.513Z,9.67
2022-09-25T05:37:01.513Z,9.67
2022-09-25T05:38:01.521Z,9.39
2022-09-25T05:39:01.513Z,9.5
2022-09-25T05:40:01.517Z,9.5
2022-09-25T05:41:01.519Z,9.67
2022-09-25T05:42:01.543Z,9.67
2022-09-25T05:43:01.520Z,9.67
2022-09-25T05:44:01.517Z,9.67
2022-09-25T05:45:06.664Z,9.78
2022-09-25T05:46:01.572Z,9.67
2022-09-25T05:47:01.525Z,9.5
2022-09-25T05:48:01.519Z,9.67
2022-09-25T05:49:01.530Z,9.5
2022-09-25T05:50:01.514Z,9.78
2022-09-25T05:51:01.521Z,9.5
2022-09-25T05:52:01.527Z,9.67
2022-09-25T05:53:01.528Z,9.67
2022-09-25T05:54:01.518Z,9.78
2022-09-25T05:55:01.517Z,9.78
2022-09-25T05:56:01.529Z,10.11
2022-09-25T05:57:01.515Z,9.94
2022-09-25T05:58:01.548Z,9.78
2022-09-25T05:59:01.512Z,10.11
2022-09-25T06:00:01.515Z,9.67
2022-09-25T06:01:01.519Z,9.78
2022-09-25T06:02:01.536Z,9.78
2022-09-25T06:03:01.716Z,10.11
2022-09-25T06:04:01.529Z,10.11
2022-09-25T06:05:01.518Z,10.11
2022-09-25T06:06:01.570Z,10.11
2022-09-25T06:07:01.515Z,10.11
2022-09-25T06:08:01.546Z,10.11
2022-09-25T06:09:01.536Z,10.11
2022-09-25T06:10:01.521Z,10.11
2022-09-25T06:11:01.654Z,10.56
2022-09-25T06:12:01.522Z,10.67
2022-09-25T06:13:01.530Z,10.39
2022-09-25T06:14:01.551Z,10.56
2022-09-25T06:15:01.530Z,10.56
2022-09-25T06:16:01.632Z,10.56
2022-09-25T06:17:01.524Z,10.83
2022-09-25T06:18:01.530Z,10.56
2022-09-25T06:19:01.531Z,11
2022-09-25T06:20:01.529Z,10.39
2022-09-25T06:21:01.536Z,10.67
2022-09-25T06:22:01.536Z,10.67
2022-09-25T06:23:01.523Z,10.56
2022-09-25T06:24:01.546Z,10.56
2022-09-25T06:25:01.526Z,10.56
2022-09-25T06:26:01.536Z,10.39
2022-09-25T06:27:01.535Z,10.11
2022-09-25T06:28:01.531Z,10.11
2022-09-25T06:29:03.310Z,10.56
2022-09-25T06:30:01.557Z,10.56
2022-09-25T06:31:01.650Z,10.22
2022-09-25T06:32:01.538Z,10.56
2022-09-25T06:33:01.525Z,10.56
2022-09-25T06:34:01.541Z,10.39
2022-09-25T06:35:01.534Z,10.56
2022-09-25T06:36:01.587Z,10.56
2022-09-25T06:37:01.538Z,10.39
2022-09-25T06:38:01.549Z,10.67
2022-09-25T06:39:01.532Z,11
2022-09-25T06:40:01.542Z,10.67
2022-09-25T06:41:01.587Z,10.83
2022-09-25T06:42:01.542Z,11.11
2022-09-25T06:43:01.556Z,11.44
2022-09-25T06:44:01.552Z,11.44
2022-09-25T06:45:01.533Z,11.61
2022-09-25T06:46:01.596Z,11.83
2022-09-25T06:47:01.554Z,11.94
2022-09-25T06:48:01.535Z,12.11
2022-09-25T06:49:01.534Z,12.28
2022-09-25T06:50:01.551Z,12.44
2022-09-25T06:51:01.580Z,12.56
2022-09-25T06:52:01.531Z,12.89
2022-09-25T06:53:01.544Z,13.17
2022-09-25T06:54:01.549Z,13.06
2022-09-25T06:55:01.526Z,13.33
2022-09-25T06:56:01.548Z,13.67
2022-09-25T06:57:01.548Z,13.67
2022-09-25T06:58:01.538Z,13.67
2022-09-25T06:59:01.528Z,13.67
2022-09-25T07:00:01.538Z,14.06
2022-09-25T07:01:04.141Z,13.17
2022-09-25T07:02:01.710Z,13.33
2022-09-25T07:03:01.569Z,13.67
2022-09-25T07:04:01.535Z,13.94
2022-09-25T07:05:01.533Z,14.56
2022-09-25T07:06:01.567Z,14.06
2022-09-25T07:07:01.546Z,14.56
2022-09-25T07:08:01.558Z,14.89
2022-09-25T07:09:01.556Z,14.56
2022-09-25T07:10:01.552Z,13.33
2022-09-25T07:11:01.557Z,13.67
2022-09-25T07:12:01.546Z,13.5
2022-09-25T07:13:01.544Z,13.94
2022-09-25T07:14:01.551Z,13.94
2022-09-25T07:15:01.543Z,14.28
2022-09-25T07:16:01.597Z,13.17
2022-09-25T07:17:01.546Z,13.5
2022-09-25T07:18:01.570Z,13.78
2022-09-25T07:19:01.558Z,14.39
2022-09-25T07:20:01.549Z,14.28
2022-09-25T07:21:01.546Z,14.28
2022-09-25T07:22:01.546Z,14.06
2022-09-25T07:23:01.550Z,13.94
2022-09-25T07:24:01.563Z,14.06
2022-09-25T07:25:01.561Z,13.78
2022-09-25T07:26:01.551Z,13.5
2022-09-25T07:27:01.560Z,13.67
2022-09-25T07:28:01.550Z,14.06
2022-09-25T07:29:01.553Z,14.39
2022-09-25T07:30:01.551Z,14.56
2022-09-25T07:31:01.573Z,14.56
2022-09-25T07:32:01.549Z,14.28
2022-09-25T07:33:01.546Z,14.28
2022-09-25T07:34:01.650Z,15.17
2022-09-25T07:35:01.555Z,14.56
2022-09-25T07:36:01.546Z,14.56
2022-09-25T07:37:01.551Z,14.89
2022-09-25T07:38:01.561Z,14.56
2022-09-25T07:39:01.547Z,14.89
2022-09-25T07:40:01.561Z,15
2022-09-25T07:41:01.558Z,14.89
2022-09-25T07:42:01.554Z,14.56
2022-09-25T07:43:01.565Z,14.56
2022-09-25T07:44:18.006Z,15.17
2022-09-25T07:45:01.564Z,15.17
2022-09-25T07:46:01.664Z,15.39
2022-09-25T07:47:01.560Z,15.56
2022-09-25T07:48:01.567Z,16.06
2022-09-25T07:49:01.565Z,16.5
2022-09-25T07:50:01.668Z,16.22
2022-09-25T07:51:01.577Z,16.39
2022-09-25T07:52:01.562Z,15
2022-09-25T07:53:01.560Z,14.06
2022-09-25T07:54:01.559Z,14.56
2022-09-25T07:55:01.565Z,14.06
2022-09-25T07:56:06.008Z,15
2022-09-25T07:57:01.569Z,15.17
2022-09-25T07:58:01.565Z,16.39
2022-09-25T07:59:01.563Z,16.67
2022-09-25T08:00:01.557Z,16.83
2022-09-25T08:01:01.616Z,17.17
2022-09-25T08:02:01.629Z,17.28
2022-09-25T08:03:01.632Z,16.83
2022-09-25T08:04:01.563Z,16.67
2022-09-25T08:05:01.564Z,16.67
2022-09-25T08:06:01.590Z,16.67
2022-09-25T08:07:01.578Z,16.39
2022-09-25T08:08:01.572Z,15.39
2022-09-25T08:09:02.456Z,15.22
2022-09-25T08:10:01.565Z,16.39
2022-09-25T08:11:01.569Z,16.83
2022-09-25T08:12:01.561Z,16.22
2022-09-25T08:13:01.558Z,15.89
2022-09-25T08:14:01.570Z,16.22
2022-09-25T08:15:01.584Z,16.22
2022-09-25T08:16:01.610Z,15.89
2022-09-25T08:17:01.564Z,15
2022-09-25T08:18:01.576Z,14.39
2022-09-25T08:19:01.567Z,14.56
2022-09-25T08:20:01.572Z,14.56
2022-09-25T08:21:01.564Z,14.89
2022-09-25T08:22:01.594Z,14.39
2022-09-25T08:23:01.569Z,14.78
2022-09-25T08:24:01.587Z,14.56
2022-09-25T08:25:01.566Z,14.56
2022-09-25T08:26:01.561Z,14.39
2022-09-25T08:27:01.566Z,14.89
2022-09-25T08:28:01.569Z,15.22
2022-09-25T08:29:01.568Z,15.17
2022-09-25T08:30:01.564Z,15.5
2022-09-25T08:31:01.645Z,15.94
2022-09-25T08:32:01.565Z,15.78
2022-09-25T08:33:01.563Z,15.61
2022-09-25T08:34:15.176Z,15.61
2022-09-25T08:35:01.577Z,15.89
2022-09-25T08:36:01.570Z,15.78
2022-09-25T08:37:01.567Z,16.06
2022-09-25T08:38:01.584Z,16.56
2022-09-25T08:39:01.565Z,16.39
2022-09-25T08:40:01.579Z,16.06
2022-09-25T08:41:01.658Z,15.61
2022-09-25T08:42:01.573Z,15.28
2022-09-25T08:43:01.568Z,15.28
2022-09-25T08:44:01.567Z,15.17
2022-09-25T08:45:19.813Z,15.61
2022-09-25T08:46:01.661Z,15.06
2022-09-25T08:47:01.568Z,15.44
2022-09-25T08:48:01.570Z,15.61
2022-09-25T08:49:01.572Z,15.28
2022-09-25T08:50:01.577Z,14.89
2022-09-25T08:51:01.578Z,15.28
2022-09-25T08:52:01.573Z,14.89
2022-09-25T08:53:01.574Z,14.78
2022-09-25T08:54:01.595Z,14.61
2022-09-25T08:55:01.584Z,15.61
2022-09-25T08:56:01.565Z,16.06
2022-09-25T08:57:01.574Z,16.06
2022-09-25T08:58:01.569Z,16.06
2022-09-25T08:59:01.570Z,15.61
2022-09-25T09:00:02.553Z,15.17
2022-09-25T09:01:01.624Z,14.44
2022-09-25T09:02:01.570Z,14.78
2022-09-25T09:03:01.576Z,15.28
2022-09-25T09:04:01.585Z,15.44
2022-09-25T09:05:01.582Z,15.61
2022-09-25T09:06:01.592Z,16.39
2022-09-25T09:07:25.554Z,16.22
2022-09-25T09:08:01.582Z,17
2022-09-25T09:09:01.574Z,17
2022-09-25T09:10:01.607Z,17.17
2022-09-25T09:11:01.589Z,17.5
2022-09-25T09:12:01.580Z,17.5
2022-09-25T09:13:01.589Z,17.33
2022-09-25T09:14:01.585Z,17
2022-09-25T09:15:01.578Z,17.5
2022-09-25T09:16:01.769Z,17.67
2022-09-25T09:17:01.601Z,17.5
2022-09-25T09:18:01.587Z,17.94
2022-09-25T09:19:01.584Z,17.94
2022-09-25T09:20:01.586Z,16.56
2022-09-25T09:21:01.588Z,16.39
2022-09-25T09:22:01.592Z,16.06
2022-09-25T09:23:01.588Z,15.89
2022-09-25T09:24:01.596Z,15.61
2022-09-25T09:25:01.595Z,15.17
2022-09-25T09:26:01.617Z,15.44
2022-09-25T09:27:01.589Z,15.44
2022-09-25T09:28:01.602Z,16.56
2022-09-25T09:29:01.598Z,17
2022-09-25T09:30:05.647Z,17.33
2022-09-25T09:31:01.635Z,17.17
2022-09-25T09:32:01.596Z,17.5
2022-09-25T09:33:01.603Z,17
2022-09-25T09:34:01.598Z,16.22
2022-09-25T09:35:06.130Z,15.89
2022-09-25T09:36:01.598Z,16.56
2022-09-25T09:37:01.608Z,16.89
2022-09-25T09:38:01.598Z,16.72
2022-09-25T09:39:01.594Z,16.56
2022-09-25T09:40:01.605Z,17
2022-09-25T09:41:01.604Z,17
2022-09-25T09:42:01.639Z,17.33
2022-09-25T09:43:01.606Z,17.33
2022-09-25T09:44:01.605Z,16.72
2022-09-25T09:45:01.611Z,15.89
2022-09-25T09:46:01.646Z,16.39
2022-09-25T09:47:01.601Z,16.56
2022-09-25T09:48:01.617Z,16.56
2022-09-25T09:49:01.619Z,17
2022-09-25T09:50:01.610Z,16.89
2022-09-25T09:51:01.605Z,17
2022-09-25T09:52:01.605Z,17
2022-09-25T09:53:01.611Z,17
2022-09-25T09:54:01.603Z,16.89
2022-09-25T09:55:01.633Z,17.33
2022-09-25T09:56:01.611Z,17.17
2022-09-25T09:57:01.615Z,16.56
2022-09-25T09:58:01.637Z,16.56
2022-09-25T09:59:01.606Z,15.89
2022-09-25T10:00:04.831Z,16.89
2022-09-25T10:01:16.223Z,17.17
2022-09-25T10:02:01.840Z,17
2022-09-25T10:03:01.726Z,17
2022-09-25T10:04:01.618Z,17
2022-09-25T10:05:01.617Z,16.72
2022-09-25T10:06:01.634Z,16.72
2022-09-25T10:07:01.624Z,16.89
2022-09-25T10:08:01.623Z,17.94
2022-09-25T10:09:01.624Z,18.44
2022-09-25T10:10:01.621Z,17.17
2022-09-25T10:11:01.623Z,16.56
2022-09-25T10:12:01.625Z,17
2022-09-25T10:13:05.574Z,16.22
2022-09-25T10:14:01.651Z,16.06
2022-09-25T10:15:01.624Z,16.06
2022-09-25T10:16:01.702Z,16.72
2022-09-25T10:17:01.625Z,17
2022-09-25T10:18:01.630Z,16.89
2022-09-25T10:19:01.625Z,16.72
2022-09-25T10:20:01.624Z,16.22
2022-09-25T10:21:01.638Z,16.06
2022-09-25T10:22:01.628Z,17
2022-09-25T10:23:01.628Z,17.33
2022-09-25T10:24:01.621Z,17.5
2022-09-25T10:25:01.640Z,17.33
2022-09-25T10:26:01.635Z,17.5
2022-09-25T10:27:01.631Z,18.17
2022-09-25T10:28:01.634Z,18.28
2022-09-25T10:29:01.633Z,17.5
2022-09-25T10:30:01.787Z,17.5
2022-09-25T10:31:01.676Z,17.5
2022-09-25T10:32:01.632Z,17.17
2022-09-25T10:33:01.635Z,17.5
2022-09-25T10:34:01.670Z,17.94
2022-09-25T10:35:01.649Z,17.67
2022-09-25T10:36:01.644Z,17.83
2022-09-25T10:37:01.634Z,18.17
2022-09-25T10:38:01.657Z,18.94
2022-09-25T10:39:24.371Z,19.44
2022-09-25T10:40:01.640Z,19.44
2022-09-25T10:41:01.639Z,18.94
2022-09-25T10:42:01.637Z,18.44
2022-09-25T10:43:01.648Z,17.56
2022-09-25T10:44:01.632Z,17.06
2022-09-25T10:45:01.641Z,17.22
2022-09-25T10:46:01.725Z,17.67
2022-09-25T10:47:01.643Z,17.22
2022-09-25T10:48:01.647Z,17.39
2022-09-25T10:49:01.649Z,17.22
2022-09-25T10:50:01.641Z,16.72
2022-09-25T10:51:01.650Z,16.11
2022-09-25T10:52:01.638Z,16.28
2022-09-25T10:53:01.636Z,16.72
2022-09-25T10:54:01.644Z,16.72
2022-09-25T10:55:01.648Z,16.56
2022-09-25T10:56:01.640Z,17.22
2022-09-25T10:57:01.645Z,17.22
2022-09-25T10:58:01.645Z,17.67
2022-09-25T10:59:01.705Z,18
2022-09-25T11:00:01.655Z,18
2022-09-25T11:01:01.684Z,17.5
2022-09-25T11:02:01.798Z,17.67
2022-09-25T11:03:01.650Z,17.5
2022-09-25T11:04:01.644Z,16.72
2022-09-25T11:05:01.646Z,16.28
2022-09-25T11:06:01.659Z,16.28
2022-09-25T11:07:01.656Z,16.72
2022-09-25T11:08:01.649Z,16.56
2022-09-25T11:09:01.656Z,16.72
2022-09-25T11:10:01.642Z,16.72
2022-09-25T11:11:01.648Z,16.28
2022-09-25T11:12:01.653Z,16.28
2022-09-25T11:13:01.644Z,17.06
2022-09-25T11:14:01.644Z,17.22
2022-09-25T11:15:01.645Z,17.39
2022-09-25T11:16:01.645Z,17.39
2022-09-25T11:17:01.765Z,16.72
2022-09-25T11:18:01.674Z,16.72
2022-09-25T11:19:04.607Z,17.39
2022-09-25T11:20:01.654Z,17.06
2022-09-25T11:21:01.641Z,16.72
2022-09-25T11:22:01.665Z,17.06
2022-09-25T11:23:01.650Z,17.5
2022-09-25T11:24:01.649Z,17.22
2022-09-25T11:25:01.863Z,17.39
2022-09-25T11:26:01.657Z,17.06
2022-09-25T11:27:01.652Z,17.06
2022-09-25T11:28:01.658Z,17.22
2022-09-25T11:29:01.652Z,17.22
2022-09-25T11:30:01.671Z,16.44
2022-09-25T11:31:01.675Z,16.28
2022-09-25T11:32:01.659Z,16.28
2022-09-25T11:33:01.651Z,16.56
2022-09-25T11:34:01.681Z,16.89
2022-09-25T11:35:01.659Z,16.72
2022-09-25T11:36:01.666Z,16.44
2022-09-25T11:37:01.657Z,16.44
2022-09-25T11:38:02.585Z,16.56
2022-09-25T11:39:01.654Z,16.72
2022-09-25T11:40:01.665Z,16.72
2022-09-25T11:41:01.662Z,16.72
2022-09-25T11:42:01.675Z,16.56
2022-09-25T11:43:01.663Z,16.72
2022-09-25T11:44:01.665Z,16.44
2022-09-25T11:45:01.654Z,16.72
2022-09-25T11:46:01.675Z,17.22
2022-09-25T11:47:01.659Z,16.89
2022-09-25T11:48:01.664Z,17.5
2022-09-25T11:49:01.659Z,17.22
2022-09-25T11:50:01.690Z,17.22
2022-09-25T11:51:01.657Z,16.56
2022-09-25T11:52:01.669Z,16.56
2022-09-25T11:53:01.663Z,16.72
2022-09-25T11:54:18.198Z,16.72
2022-09-25T11:55:01.655Z,17.22
2022-09-25T11:56:01.670Z,16.72
2022-09-25T11:57:01.668Z,16.44
2022-09-25T11:58:01.659Z,16.28
2022-09-25T11:59:01.659Z,16.28
2022-09-25T12:00:01.700Z,16.28
2022-09-25T12:01:01.729Z,16.28
2022-09-25T12:02:01.666Z,15.83
2022-09-25T12:03:01.670Z,15.83
2022-09-25T12:04:01.668Z,15.83
2022-09-25T12:05:01.686Z,16.11
2022-09-25T12:06:01.776Z,16.28
2022-09-25T12:07:01.668Z,16.72
2022-09-25T12:08:01.667Z,16.44
2022-09-25T12:09:01.672Z,16.44
2022-09-25T12:10:01.671Z,16.28
2022-09-25T12:11:01.676Z,16.11
2022-09-25T12:12:01.679Z,16.11
2022-09-25T12:13:01.671Z,16.11
2022-09-25T12:14:01.679Z,15.94
2022-09-25T12:15:01.677Z,16.28
2022-09-25T12:16:01.684Z,16.28
2022-09-25T12:17:01.666Z,16.11
2022-09-25T12:18:01.678Z,16.28
2022-09-25T12:19:01.684Z,16.28
2022-09-25T12:20:01.678Z,16.11
2022-09-25T12:21:01.685Z,16.28
2022-09-25T12:22:01.699Z,16.28
2022-09-25T12:23:01.680Z,16.44
2022-09-25T12:24:01.674Z,16.44
2022-09-25T12:25:01.688Z,16.28
2022-09-25T12:26:01.685Z,16.72
2022-09-25T12:27:01.683Z,16.72
2022-09-25T12:28:01.684Z,16.89
2022-09-25T12:29:01.677Z,16.72
2022-09-25T12:30:01.686Z,16.56
2022-09-25T12:31:05.375Z,16.56
2022-09-25T12:32:01.682Z,16.72
2022-09-25T12:33:01.680Z,16.72
2022-09-25T12:34:01.694Z,16.72
2022-09-25T12:35:01.680Z,16.89
2022-09-25T12:36:01.684Z,16.56
2022-09-25T12:37:01.684Z,17.39
2022-09-25T12:38:01.709Z,17.22
2022-09-25T12:39:01.688Z,17.5
2022-09-25T12:40:01.694Z,17.22
2022-09-25T12:41:01.682Z,16.89
2022-09-25T12:42:01.690Z,16.72
2022-09-25T12:43:01.690Z,16.72
2022-09-25T12:44:01.691Z,16.44
2022-09-25T12:45:01.686Z,16.28
2022-09-25T12:46:01.742Z,16.44
2022-09-25T12:47:01.685Z,16.28
2022-09-25T12:48:01.695Z,15.94
2022-09-25T12:49:01.687Z,16.28
2022-09-25T12:50:01.688Z,16.44
2022-09-25T12:51:05.280Z,16.44
2022-09-25T12:52:01.682Z,16.44
2022-09-25T12:53:01.689Z,16.11
2022-09-25T12:54:01.714Z,16.28
2022-09-25T12:55:01.684Z,16.28
2022-09-25T12:56:01.682Z,16.28
2022-09-25T12:57:01.692Z,16.28
2022-09-25T12:58:01.694Z,16.28
2022-09-25T12:59:01.696Z,16.44
2022-09-25T13:00:01.695Z,16.44
2022-09-25T13:01:01.733Z,16.28
2022-09-25T13:02:01.790Z,16.28
2022-09-25T13:03:01.685Z,16.11
2022-09-25T13:04:01.693Z,16.28
2022-09-25T13:05:01.693Z,16.11
2022-09-25T13:06:01.695Z,15.94
2022-09-25T13:07:01.689Z,16.11
2022-09-25T13:08:01.693Z,16.11